sensor_id;sensor_type;location;lat;lon;timestamp;pressure;altitude;pressure_sealevel;temperature;humidity
44531;BME280;30240;47.418;0.700;2022-10-26T00:02:03;99954.0283203125;;;16.94;84.65
44531;BME280;30240;47.418;0.700;2022-10-26T00:04:29;99954.0283203125;;;16.94;84.65
44531;BME280;30240;47.418;0.700;2022-10-26T00:06:54;99971.79565429688;;;17.02;84.16
44531;BME280;30240;47.418;0.700;2022-10-26T00:09:19;99976.00708007812;;;17.04;84.33
44531;BME280;30240;47.418;0.700;2022-10-26T00:11:43;99978.99169921875;;;16.87;84.97
44531;BME280;30240;47.418;0.700;2022-10-26T00:14:08;99984.65576171875;;;16.82;85.06
44531;BME280;30240;47.418;0.700;2022-10-26T00:16:33;99984.65576171875;;;16.82;85.06
44531;BME280;30240;47.418;0.700;2022-10-26T00:18:58;99993.53637695312;;;16.8;85.13
44531;BME280;30240;47.418;0.700;2022-10-26T00:21:23;99992.38891601562;;;16.76;85.34
44531;BME280;30240;47.418;0.700;2022-10-26T00:23:48;99993.9697265625;;;16.65;85.83
44531;BME280;30240;47.418;0.700;2022-10-26T00:26:14;99995.48950195312;;;16.67;85.56
44531;BME280;30240;47.418;0.700;2022-10-26T00:28:39;99995.48950195312;;;16.67;85.56
44531;BME280;30240;47.418;0.700;2022-10-26T00:31:05;100001.318359375;;;16.62;86.0
44531;BME280;30240;47.418;0.700;2022-10-26T00:33:29;100007.6416015625;;;16.58;86.1
44531;BME280;30240;47.418;0.700;2022-10-26T00:35:53;100020.06225585938;;;16.54;86.32
44531;BME280;30240;47.418;0.700;2022-10-26T00:38:19;100021.60034179688;;;16.48;86.5
44531;BME280;30240;47.418;0.700;2022-10-26T00:40:43;100021.60034179688;;;16.48;86.5
44531;BME280;30240;47.418;0.700;2022-10-26T00:43:13;100021.17309570312;;;16.55;86.16
44531;BME280;30240;47.418;0.700;2022-10-26T00:45:33;100023.62670898438;;;16.54;86.35
44531;BME280;30240;47.418;0.700;2022-10-26T00:48:02;100039.55688476562;;;16.5;86.43
44531;BME280;30240;47.418;0.700;2022-10-26T00:50:28;100039.9658203125;;;16.41;86.75
44531;BME280;30240;47.418;0.700;2022-10-26T00:52:49;100039.9658203125;;;16.41;86.75
44531;BME280;30240;47.418;0.700;2022-10-26T00:55:15;100034.95483398438;;;16.23;87.55
44531;BME280;30240;47.418;0.700;2022-10-26T00:57:38;100034.56420898438;;;16.27;87.18
44531;BME280;30240;47.418;0.700;2022-10-26T01:00:05;100035.19287109375;;;16.17;87.79
44531;BME280;30240;47.418;0.700;2022-10-26T01:02:28;100041.42456054688;;;16.23;87.52
44531;BME280;30240;47.418;0.700;2022-10-26T01:04:54;100041.42456054688;;;16.23;87.52
44531;BME280;30240;47.418;0.700;2022-10-26T01:07:19;100042.47436523438;;;16.14;87.78
44531;BME280;30240;47.418;0.700;2022-10-26T01:09:44;100038.97094726562;;;16.17;87.68
44531;BME280;30240;47.418;0.700;2022-10-26T01:12:08;100033.53271484375;;;16.16;87.7
44531;BME280;30240;47.418;0.700;2022-10-26T01:14:34;100018.310546875;;;16.16;87.66
44531;BME280;30240;47.418;0.700;2022-10-26T01:17:04;100018.310546875;;;16.16;87.66
44531;BME280;30240;47.418;0.700;2022-10-26T01:19:55;100025.64086914062;;;16.09;88.17
44531;BME280;30240;47.418;0.700;2022-10-26T01:21:51;100038.43994140625;;;15.95;88.54
44531;BME280;30240;47.418;0.700;2022-10-26T01:24:35;100037.548828125;;;15.96;88.71
44531;BME280;30240;47.418;0.700;2022-10-26T01:24:44;100037.548828125;;;15.96;88.71
44531;BME280;30240;47.418;0.700;2022-10-26T01:26:56;100042.0166015625;;;15.84;89.07
44531;BME280;30240;47.418;0.700;2022-10-26T01:29:15;100053.21044921875;;;15.81;89.26
44531;BME280;30240;47.418;0.700;2022-10-26T01:29:31;100053.21044921875;;;15.81;89.26
44531;BME280;30240;47.418;0.700;2022-10-26T01:29:41;100053.21044921875;;;15.81;89.26
44531;BME280;30240;47.418;0.700;2022-10-26T01:29:58;100053.21044921875;;;15.81;89.26
44531;BME280;30240;47.418;0.700;2022-10-26T01:31:33;100053.21044921875;;;15.81;89.26
44531;BME280;30240;47.418;0.700;2022-10-26T01:33:59;100053.2958984375;;;15.79;89.51
44531;BME280;30240;47.418;0.700;2022-10-26T01:36:29;100051.76391601562;;;15.72;89.63
44531;BME280;30240;47.418;0.700;2022-10-26T01:38:53;100055.6640625;;;15.69;89.77
44531;BME280;30240;47.418;0.700;2022-10-26T01:41:12;100052.34985351562;;;15.74;89.85
44531;BME280;30240;47.418;0.700;2022-10-26T01:43:36;100052.34985351562;;;15.74;89.85
44531;BME280;30240;47.418;0.700;2022-10-26T01:45:59;100056.61010742188;;;15.65;89.93
44531;BME280;30240;47.418;0.700;2022-10-26T01:48:24;100059.93041992188;;;15.74;89.79
44531;BME280;30240;47.418;0.700;2022-10-26T01:50:51;100061.68823242188;;;15.69;90.12
44531;BME280;30240;47.418;0.700;2022-10-26T01:53:14;100064.41650390625;;;15.75;89.86
44531;BME280;30240;47.418;0.700;2022-10-26T01:55:43;100064.41650390625;;;15.75;89.86
44531;BME280;30240;47.418;0.700;2022-10-26T01:58:09;100066.2353515625;;;15.69;90.03
44531;BME280;30240;47.418;0.700;2022-10-26T02:00:31;100067.34619140625;;;15.65;90.32
44531;BME280;30240;47.418;0.700;2022-10-26T02:02:59;100071.51489257812;;;15.57;90.64
44531;BME280;30240;47.418;0.700;2022-10-26T02:05:25;100084.326171875;;;15.57;90.71
44531;BME280;30240;47.418;0.700;2022-10-26T02:07:54;100084.326171875;;;15.57;90.71
44531;BME280;30240;47.418;0.700;2022-10-26T02:10:22;100083.984375;;;15.6;90.76
44531;BME280;30240;47.418;0.700;2022-10-26T02:12:38;100088.87329101562;;;15.54;90.9
44531;BME280;30240;47.418;0.700;2022-10-26T02:15:06;100085.49194335938;;;15.46;91.26
44531;BME280;30240;47.418;0.700;2022-10-26T02:17:28;100087.17041015625;;;15.47;91.39
44531;BME280;30240;47.418;0.700;2022-10-26T02:19:52;100087.17041015625;;;15.47;91.39
44531;BME280;30240;47.418;0.700;2022-10-26T02:22:17;100098.32763671875;;;15.47;91.5
44531;BME280;30240;47.418;0.700;2022-10-26T02:24:40;100100.57983398438;;;15.44;91.58
44531;BME280;30240;47.418;0.700;2022-10-26T02:27:05;100104.43115234375;;;15.34;92.03
44531;BME280;30240;47.418;0.700;2022-10-26T02:29:30;100114.501953125;;;15.36;92.07
44531;BME280;30240;47.418;0.700;2022-10-26T02:31:54;100114.501953125;;;15.36;92.07
44531;BME280;30240;47.418;0.700;2022-10-26T02:34:21;100116.015625;;;15.27;92.28
44531;BME280;30240;47.418;0.700;2022-10-26T02:36:45;100118.37768554688;;;15.29;92.44
44531;BME280;30240;47.418;0.700;2022-10-26T02:39:10;100121.85668945312;;;15.26;92.45
44531;BME280;30240;47.418;0.700;2022-10-26T02:41:34;100126.31225585938;;;15.2;92.58
44531;BME280;30240;47.418;0.700;2022-10-26T02:44:02;100126.31225585938;;;15.2;92.58
44531;BME280;30240;47.418;0.700;2022-10-26T02:46:24;100121.93603515625;;;15.22;92.7
44531;BME280;30240;47.418;0.700;2022-10-26T02:48:48;100126.20239257812;;;15.16;92.95
44531;BME280;30240;47.418;0.700;2022-10-26T02:51:17;100129.52880859375;;;15.09;93.06
44531;BME280;30240;47.418;0.700;2022-10-26T02:53:41;100134.72900390625;;;15.09;93.03
44531;BME280;30240;47.418;0.700;2022-10-26T02:56:07;100132.33642578125;;;15.03;93.31
44531;BME280;30240;47.418;0.700;2022-10-26T02:58:32;100132.33642578125;;;15.03;93.31
44531;BME280;30240;47.418;0.700;2022-10-26T03:00:54;100134.7900390625;;;15.02;93.4
44531;BME280;30240;47.418;0.700;2022-10-26T03:03:19;100132.9833984375;;;15.02;93.38
44531;BME280;30240;47.418;0.700;2022-10-26T03:05:43;100132.89184570312;;;14.95;93.49
44531;BME280;30240;47.418;0.700;2022-10-26T03:08:09;100137.50610351562;;;14.94;93.61
44531;BME280;30240;47.418;0.700;2022-10-26T03:10:37;100137.50610351562;;;14.94;93.61
44531;BME280;30240;47.418;0.700;2022-10-26T03:12:59;100136.68823242188;;;14.88;93.77
44531;BME280;30240;47.418;0.700;2022-10-26T03:15:23;100140.54565429688;;;14.85;93.89
44531;BME280;30240;47.418;0.700;2022-10-26T03:17:48;100148.76708984375;;;14.77;94.16
44531;BME280;30240;47.418;0.700;2022-10-26T03:20:13;100152.00805664062;;;14.76;94.49
44531;BME280;30240;47.418;0.700;2022-10-26T03:22:38;100152.00805664062;;;14.76;94.49
44531;BME280;30240;47.418;0.700;2022-10-26T03:25:04;100150.42114257812;;;14.7;94.59
44531;BME280;30240;47.418;0.700;2022-10-26T03:27:28;100156.92138671875;;;14.66;94.79
44531;BME280;30240;47.418;0.700;2022-10-26T03:29:53;100158.0322265625;;;14.61;94.93
44531;BME280;30240;47.418;0.700;2022-10-26T03:32:19;100156.0791015625;;;14.59;95.1
44531;BME280;30240;47.418;0.700;2022-10-26T03:34:43;100156.0791015625;;;14.59;95.1
44531;BME280;30240;47.418;0.700;2022-10-26T03:37:09;100157.83081054688;;;14.59;94.99
44531;BME280;30240;47.418;0.700;2022-10-26T03:39:33;100164.64233398438;;;14.53;95.32
44531;BME280;30240;47.418;0.700;2022-10-26T03:41:59;100158.88061523438;;;14.51;95.34
44531;BME280;30240;47.418;0.700;2022-10-26T03:44:23;100158.12377929688;;;14.5;95.32
44531;BME280;30240;47.418;0.700;2022-10-26T03:46:49;100158.12377929688;;;14.5;95.32
44531;BME280;30240;47.418;0.700;2022-10-26T03:49:13;100165.41137695312;;;14.49;95.59
44531;BME280;30240;47.418;0.700;2022-10-26T03:51:38;100177.4169921875;;;14.4;95.77
44531;BME280;30240;47.418;0.700;2022-10-26T03:54:04;100186.60888671875;;;14.32;96.08
44531;BME280;30240;47.418;0.700;2022-10-26T03:56:28;100185.38818359375;;;14.35;95.97
44531;BME280;30240;47.418;0.700;2022-10-26T03:58:53;100185.38818359375;;;14.35;95.97
44531;BME280;30240;47.418;0.700;2022-10-26T04:01:19;100204.76684570312;;;14.36;96.07
44531;BME280;30240;47.418;0.700;2022-10-26T04:03:44;100201.79443359375;;;14.42;95.97
44531;BME280;30240;47.418;0.700;2022-10-26T04:06:09;100214.33715820312;;;14.4;96.04
44531;BME280;30240;47.418;0.700;2022-10-26T04:08:33;100215.26489257812;;;14.47;95.79
44531;BME280;30240;47.418;0.700;2022-10-26T04:10:59;100215.26489257812;;;14.47;95.79
44531;BME280;30240;47.418;0.700;2022-10-26T04:13:24;100223.90747070312;;;14.56;95.75
44531;BME280;30240;47.418;0.700;2022-10-26T04:15:49;100220.93505859375;;;14.55;95.77
44531;BME280;30240;47.418;0.700;2022-10-26T04:18:14;100200.20141601562;;;14.57;95.64
44531;BME280;30240;47.418;0.700;2022-10-26T04:20:40;100208.12377929688;;;14.57;95.59
44531;BME280;30240;47.418;0.700;2022-10-26T04:23:05;100208.12377929688;;;14.57;95.59
44531;BME280;30240;47.418;0.700;2022-10-26T04:25:29;100208.23364257812;;;14.5;95.84
44531;BME280;30240;47.418;0.700;2022-10-26T04:27:53;100210.7666015625;;;14.53;95.98
44531;BME280;30240;47.418;0.700;2022-10-26T04:30:19;100211.90795898438;;;14.55;95.96
44531;BME280;30240;47.418;0.700;2022-10-26T04:32:43;100218.9697265625;;;14.55;95.83
44531;BME280;30240;47.418;0.700;2022-10-26T04:35:08;100215.17333984375;;;14.49;96.01
44531;BME280;30240;47.418;0.700;2022-10-26T04:37:33;100215.17333984375;;;14.49;96.01
44531;BME280;30240;47.418;0.700;2022-10-26T04:39:59;100214.404296875;;;14.43;96.08
44531;BME280;30240;47.418;0.700;2022-10-26T04:42:23;100218.37768554688;;;14.4;96.2
44531;BME280;30240;47.418;0.700;2022-10-26T04:44:48;100223.68774414062;;;14.36;96.27
44531;BME280;30240;47.418;0.700;2022-10-26T04:47:13;100235.40649414062;;;14.28;96.52
44531;BME280;30240;47.418;0.700;2022-10-26T04:49:38;100235.40649414062;;;14.28;96.52
44531;BME280;30240;47.418;0.700;2022-10-26T04:52:04;100238.7939453125;;;14.24;96.76
44531;BME280;30240;47.418;0.700;2022-10-26T04:54:29;100238.42163085938;;;14.33;96.67
44531;BME280;30240;47.418;0.700;2022-10-26T04:56:53;100238.8916015625;;;14.29;96.66
44531;BME280;30240;47.418;0.700;2022-10-26T04:59:19;100247.95532226562;;;14.33;96.72
44531;BME280;30240;47.418;0.700;2022-10-26T05:01:43;100247.95532226562;;;14.33;96.72
44531;BME280;30240;47.418;0.700;2022-10-26T05:04:08;100252.17895507812;;;14.35;96.59
44531;BME280;30240;47.418;0.700;2022-10-26T05:06:33;100244.3603515625;;;14.33;96.61
44531;BME280;30240;47.418;0.700;2022-10-26T05:08:58;100241.93725585938;;;14.35;96.33
44531;BME280;30240;47.418;0.700;2022-10-26T05:11:23;100248.85864257812;;;14.29;96.5
44531;BME280;30240;47.418;0.700;2022-10-26T05:13:49;100248.85864257812;;;14.29;96.5
44531;BME280;30240;47.418;0.700;2022-10-26T05:16:14;100257.1044921875;;;14.21;96.75
44531;BME280;30240;47.418;0.700;2022-10-26T05:18:38;100265.07568359375;;;14.15;96.98
44531;BME280;30240;47.418;0.700;2022-10-26T05:21:04;100268.6279296875;;;14.18;97.05
44531;BME280;30240;47.418;0.700;2022-10-26T05:23:28;100263.44604492188;;;14.17;96.99
44531;BME280;30240;47.418;0.700;2022-10-26T05:25:54;100263.44604492188;;;14.17;96.99
44531;BME280;30240;47.418;0.700;2022-10-26T05:28:19;100262.53051757812;;;14.15;96.97
44531;BME280;30240;47.418;0.700;2022-10-26T05:30:44;100264.31274414062;;;14.15;96.95
44531;BME280;30240;47.418;0.700;2022-10-26T05:33:10;100264.09301757812;;;14.12;97.06
44531;BME280;30240;47.418;0.700;2022-10-26T05:35:34;100271.45385742188;;;14.12;97.03
44531;BME280;30240;47.418;0.700;2022-10-26T05:37:59;100271.45385742188;;;14.12;97.03
44531;BME280;30240;47.418;0.700;2022-10-26T05:40:24;100263.77563476562;;;14.15;97.04
44531;BME280;30240;47.418;0.700;2022-10-26T05:42:49;100268.68896484375;;;14.17;96.97
44531;BME280;30240;47.418;0.700;2022-10-26T05:45:14;100273.40698242188;;;14.18;96.92
44531;BME280;30240;47.418;0.700;2022-10-26T05:47:38;100279.40063476562;;;14.11;96.92
44531;BME280;30240;47.418;0.700;2022-10-26T05:50:04;100279.40063476562;;;14.11;96.92
44531;BME280;30240;47.418;0.700;2022-10-26T05:52:29;100284.07592773438;;;14.02;97.44
44531;BME280;30240;47.418;0.700;2022-10-26T05:54:53;100290.4052734375;;;13.97;97.66
44531;BME280;30240;47.418;0.700;2022-10-26T05:57:19;100296.2646484375;;;13.95;97.75
44531;BME280;30240;47.418;0.700;2022-10-26T05:59:44;100303.0517578125;;;13.94;97.9
44531;BME280;30240;47.418;0.700;2022-10-26T06:02:26;100301.2939453125;;;13.85;97.98
44531;BME280;30240;47.418;0.700;2022-10-26T06:02:31;100301.2939453125;;;13.85;97.98
44531;BME280;30240;47.418;0.700;2022-10-26T06:04:36;100301.2939453125;;;13.85;97.98
44531;BME280;30240;47.418;0.700;2022-10-26T06:06:59;100297.85766601562;;;13.85;98.04
44531;BME280;30240;47.418;0.700;2022-10-26T06:09:24;100300.74462890625;;;13.84;97.75
44531;BME280;30240;47.418;0.700;2022-10-26T06:11:49;100304.296875;;;13.76;98.01
44531;BME280;30240;47.418;0.700;2022-10-26T06:14:14;100312.31079101562;;;13.67;98.39
44531;BME280;30240;47.418;0.700;2022-10-26T06:17:06;100312.31079101562;;;13.67;98.39
44531;BME280;30240;47.418;0.700;2022-10-26T06:19:11;100312.5;;;13.65;98.61
44531;BME280;30240;47.418;0.700;2022-10-26T06:21:36;100314.59350585938;;;13.59;98.85
44531;BME280;30240;47.418;0.700;2022-10-26T06:21:43;100314.59350585938;;;13.59;98.85
44531;BME280;30240;47.418;0.700;2022-10-26T06:23:57;100325.048828125;;;13.53;99.08
44531;BME280;30240;47.418;0.700;2022-10-26T06:26:32;100317.88330078125;;;13.48;99.25
44531;BME280;30240;47.418;0.700;2022-10-26T06:28:50;100317.88330078125;;;13.48;99.25
44531;BME280;30240;47.418;0.700;2022-10-26T06:28:56;100317.88330078125;;;13.48;99.25
44531;BME280;30240;47.418;0.700;2022-10-26T06:31:12;100316.70532226562;;;13.48;99.3
44531;BME280;30240;47.418;0.700;2022-10-26T06:33:34;100311.35864257812;;;13.43;99.21
44531;BME280;30240;47.418;0.700;2022-10-26T06:36:05;100316.5771484375;;;13.36;99.09
44531;BME280;30240;47.418;0.700;2022-10-26T06:36:12;100316.5771484375;;;13.36;99.09
44531;BME280;30240;47.418;0.700;2022-10-26T06:36:19;100316.5771484375;;;13.36;99.09
44531;BME280;30240;47.418;0.700;2022-10-26T06:38:26;100319.34204101562;;;13.43;99.15
44531;BME280;30240;47.418;0.700;2022-10-26T06:40:51;100319.34204101562;;;13.43;99.15
44531;BME280;30240;47.418;0.700;2022-10-26T06:43:19;100328.21044921875;;;13.46;99.02
44531;BME280;30240;47.418;0.700;2022-10-26T06:45:40;100340.98510742188;;;13.56;98.61
44531;BME280;30240;47.418;0.700;2022-10-26T06:48:06;100340.73486328125;;;13.63;98.26
44531;BME280;30240;47.418;0.700;2022-10-26T06:50:32;100342.93823242188;;;13.77;97.75
44531;BME280;30240;47.418;0.700;2022-10-26T06:52:59;100342.93823242188;;;13.77;97.75
44531;BME280;30240;47.418;0.700;2022-10-26T06:55:19;100355.35888671875;;;13.93;97.28
44531;BME280;30240;47.418;0.700;2022-10-26T06:57:44;100359.912109375;;;13.95;96.86
44531;BME280;30240;47.418;0.700;2022-10-26T07:00:14;100366.9677734375;;;14.18;96.05
44531;BME280;30240;47.418;0.700;2022-10-26T07:02:33;100369.81811523438;;;14.28;95.42
44531;BME280;30240;47.418;0.700;2022-10-26T07:04:58;100369.81811523438;;;14.28;95.42
44531;BME280;30240;47.418;0.700;2022-10-26T07:07:25;100373.88305664062;;;14.42;95.09
44531;BME280;30240;47.418;0.700;2022-10-26T07:09:49;100372.59521484375;;;14.42;95.04
44531;BME280;30240;47.418;0.700;2022-10-26T07:12:14;100373.80981445312;;;14.25;95.55
44531;BME280;30240;47.418;0.700;2022-10-26T07:14:38;100382.90405273438;;;14.35;95.34
44531;BME280;30240;47.418;0.700;2022-10-26T07:17:04;100382.90405273438;;;14.35;95.34
44531;BME280;30240;47.418;0.700;2022-10-26T07:19:28;100384.56420898438;;;14.7;94.04
44531;BME280;30240;47.418;0.700;2022-10-26T07:21:54;100389.76440429688;;;14.71;93.56
44531;BME280;30240;47.418;0.700;2022-10-26T07:24:18;100394.84252929688;;;14.91;93.75
44531;BME280;30240;47.418;0.700;2022-10-26T07:26:43;100388.1103515625;;;14.96;93.13
44531;BME280;30240;47.418;0.700;2022-10-26T07:29:08;100388.1103515625;;;14.96;93.13
44531;BME280;30240;47.418;0.700;2022-10-26T07:31:33;100391.93725585938;;;15.03;92.87
44531;BME280;30240;47.418;0.700;2022-10-26T07:33:58;100399.85961914062;;;15.42;91.54
44531;BME280;30240;47.418;0.700;2022-10-26T07:36:23;100402.64282226562;;;15.37;91.92
44531;BME280;30240;47.418;0.700;2022-10-26T07:38:50;100409.6435546875;;;15.78;90.59
44531;BME280;30240;47.418;0.700;2022-10-26T07:41:13;100415.81420898438;;;15.92;90.02
44531;BME280;30240;47.418;0.700;2022-10-26T07:43:38;100415.81420898438;;;15.92;90.02
44531;BME280;30240;47.418;0.700;2022-10-26T07:46:04;100416.796875;;;16.2;88.99
44531;BME280;30240;47.418;0.700;2022-10-26T07:48:29;100419.64111328125;;;16.01;89.54
44531;BME280;30240;47.418;0.700;2022-10-26T07:50:54;100417.43774414062;;;16.06;89.71
44531;BME280;30240;47.418;0.700;2022-10-26T07:53:18;100428.69262695312;;;16.59;87.63
44531;BME280;30240;47.418;0.700;2022-10-26T07:55:53;100428.69262695312;;;16.59;87.63
44531;BME280;30240;47.418;0.700;2022-10-26T07:58:08;100428.10668945312;;;16.03;89.38
44531;BME280;30240;47.418;0.700;2022-10-26T08:00:34;100413.95874023438;;;16.16;89.41
44531;BME280;30240;47.418;0.700;2022-10-26T08:02:58;100412.5;;;16.82;86.62
44531;BME280;30240;47.418;0.700;2022-10-26T08:05:24;100414.5751953125;;;16.52;88.15
44531;BME280;30240;47.418;0.700;2022-10-26T08:07:49;100414.5751953125;;;16.52;88.15
44531;BME280;30240;47.418;0.700;2022-10-26T08:10:14;100416.48559570312;;;16.89;86.6
44531;BME280;30240;47.418;0.700;2022-10-26T08:12:39;100421.29516601562;;;16.86;87.17
44531;BME280;30240;47.418;0.700;2022-10-26T08:15:04;100410.6201171875;;;17.07;86.08
44531;BME280;30240;47.418;0.700;2022-10-26T08:17:29;100426.70288085938;;;17.03;86.52
44531;BME280;30240;47.418;0.700;2022-10-26T08:19:54;100426.70288085938;;;17.03;86.52
44531;BME280;30240;47.418;0.700;2022-10-26T08:22:18;100445.0439453125;;;16.79;86.99
44531;BME280;30240;47.418;0.700;2022-10-26T08:24:44;100455.97534179688;;;17.06;86.67
44531;BME280;30240;47.418;0.700;2022-10-26T08:27:09;100462.05444335938;;;17.52;85.42
44531;BME280;30240;47.418;0.700;2022-10-26T08:29:34;100459.82666015625;;;17.66;84.31
44531;BME280;30240;47.418;0.700;2022-10-26T08:31:59;100459.82666015625;;;17.66;84.31
44531;BME280;30240;47.418;0.700;2022-10-26T08:34:24;100474.853515625;;;17.79;85.04
44531;BME280;30240;47.418;0.700;2022-10-26T08:36:49;100477.36206054688;;;17.24;86.54
44531;BME280;30240;47.418;0.700;2022-10-26T08:39:14;100470.36743164062;;;17.8;84.26
44531;BME280;30240;47.418;0.700;2022-10-26T08:41:41;100475.390625;;;18.49;82.86
44531;BME280;30240;47.418;0.700;2022-10-26T08:44:10;100475.390625;;;18.49;82.86
44531;BME280;30240;47.418;0.700;2022-10-26T08:44:19;100475.390625;;;18.49;82.86
44531;BME280;30240;47.418;0.700;2022-10-26T08:46:32;100472.39990234375;;;18.11;83.78
44531;BME280;30240;47.418;0.700;2022-10-26T08:48:55;100475.5126953125;;;18.51;82.9
44531;BME280;30240;47.418;0.700;2022-10-26T08:51:21;100475.3662109375;;;18.42;82.52
44531;BME280;30240;47.418;0.700;2022-10-26T08:53:48;100484.35668945312;;;18.27;82.83
44531;BME280;30240;47.418;0.700;2022-10-26T08:56:13;100484.35668945312;;;18.27;82.83
44531;BME280;30240;47.418;0.700;2022-10-26T08:58:37;100487.65869140625;;;18.39;83.27
44531;BME280;30240;47.418;0.700;2022-10-26T09:00:59;100489.404296875;;;18.69;81.44
44531;BME280;30240;47.418;0.700;2022-10-26T09:03:24;100484.5947265625;;;19.25;80.08
44531;BME280;30240;47.418;0.700;2022-10-26T09:05:56;100483.349609375;;;19.21;80.44
44531;BME280;30240;47.418;0.700;2022-10-26T09:06:04;100483.349609375;;;19.21;80.44
44531;BME280;30240;47.418;0.700;2022-10-26T09:08:17;100485.96801757812;;;19.42;79.34
44531;BME280;30240;47.418;0.700;2022-10-26T09:08:24;100485.96801757812;;;19.42;79.34
44531;BME280;30240;47.418;0.700;2022-10-26T09:08:30;100485.96801757812;;;19.42;79.34
44531;BME280;30240;47.418;0.700;2022-10-26T09:10:40;100485.96801757812;;;19.42;79.34
44531;BME280;30240;47.418;0.700;2022-10-26T09:10:48;100485.96801757812;;;19.42;79.34
44531;BME280;30240;47.418;0.700;2022-10-26T09:10:52;100485.96801757812;;;19.42;79.34
44531;BME280;30240;47.418;0.700;2022-10-26T09:10:57;100485.96801757812;;;19.42;79.34
44531;BME280;30240;47.418;0.700;2022-10-26T09:13:11;100494.0673828125;;;19.73;78.64
44531;BME280;30240;47.418;0.700;2022-10-26T09:13:17;100494.0673828125;;;19.73;78.64
44531;BME280;30240;47.418;0.700;2022-10-26T09:15:36;100501.513671875;;;19.96;77.86
44531;BME280;30240;47.418;0.700;2022-10-26T09:15:42;100501.513671875;;;19.96;77.86
44531;BME280;30240;47.418;0.700;2022-10-26T09:15:49;100501.513671875;;;19.96;77.86
44531;BME280;30240;47.418;0.700;2022-10-26T09:17:59;100502.64282226562;;;19.92;78.74
44531;BME280;30240;47.418;0.700;2022-10-26T09:20:29;100499.20043945312;;;19.77;78.42
44531;BME280;30240;47.418;0.700;2022-10-26T09:22:49;100499.20043945312;;;19.77;78.42
44531;BME280;30240;47.418;0.700;2022-10-26T09:25:15;100495.458984375;;;20.41;76.81
44531;BME280;30240;47.418;0.700;2022-10-26T09:27:37;100494.47631835938;;;20.12;77.06
44531;BME280;30240;47.418;0.700;2022-10-26T09:30:05;100488.61083984375;;;20.09;76.93
44531;BME280;30240;47.418;0.700;2022-10-26T09:30:11;100488.61083984375;;;20.09;76.93
44531;BME280;30240;47.418;0.700;2022-10-26T09:32:27;100488.76342773438;;;20.26;76.7
44531;BME280;30240;47.418;0.700;2022-10-26T09:34:51;100488.76342773438;;;20.26;76.7
44531;BME280;30240;47.418;0.700;2022-10-26T09:37:16;100486.05346679688;;;20.96;75.24
44531;BME280;30240;47.418;0.700;2022-10-26T09:39:41;100483.14208984375;;;20.48;75.79
44531;BME280;30240;47.418;0.700;2022-10-26T09:42:14;100490.50903320312;;;21.05;74.33
44531;BME280;30240;47.418;0.700;2022-10-26T09:44:33;100491.82739257812;;;20.86;74.65
44531;BME280;30240;47.418;0.700;2022-10-26T09:46:56;100491.82739257812;;;20.86;74.65
44531;BME280;30240;47.418;0.700;2022-10-26T09:49:20;100490.36865234375;;;20.94;74.58
44531;BME280;30240;47.418;0.700;2022-10-26T09:51:44;100490.98510742188;;;21.77;72.46
44531;BME280;30240;47.418;0.700;2022-10-26T09:54:13;100488.623046875;;;21.2;74.28
44531;BME280;30240;47.418;0.700;2022-10-26T09:56:35;100482.31811523438;;;21.45;72.52
44531;BME280;30240;47.418;0.700;2022-10-26T09:59:01;100482.31811523438;;;21.45;72.52
44531;BME280;30240;47.418;0.700;2022-10-26T10:01:28;100483.73413085938;;;21.34;72.22
44531;BME280;30240;47.418;0.700;2022-10-26T10:04:18;100488.1591796875;;;21.48;72.41
44531;BME280;30240;47.418;0.700;2022-10-26T10:06:15;100496.6552734375;;;21.59;72.32
44531;BME280;30240;47.418;0.700;2022-10-26T10:08:39;100499.18823242188;;;21.41;71.26
44531;BME280;30240;47.418;0.700;2022-10-26T10:11:05;100499.18823242188;;;21.41;71.26
44531;BME280;30240;47.418;0.700;2022-10-26T10:13:30;100503.955078125;;;22.04;71.08
44531;BME280;30240;47.418;0.700;2022-10-26T10:16:09;100509.88159179688;;;21.82;70.69
44531;BME280;30240;47.418;0.700;2022-10-26T10:18:20;100511.50512695312;;;21.93;70.37
44531;BME280;30240;47.418;0.700;2022-10-26T10:20:49;100509.65576171875;;;22.24;70.09
44531;BME280;30240;47.418;0.700;2022-10-26T10:23:26;100509.65576171875;;;22.24;70.09
44531;BME280;30240;47.418;0.700;2022-10-26T10:25:35;100508.90502929688;;;22.63;68.07
44531;BME280;30240;47.418;0.700;2022-10-26T10:27:59;100511.62719726562;;;23.29;67.03
44531;BME280;30240;47.418;0.700;2022-10-26T10:30:27;100525.9033203125;;;23.02;67.25
44531;BME280;30240;47.418;0.700;2022-10-26T10:33:03;100531.57958984375;;;23.13;66.14
44531;BME280;30240;47.418;0.700;2022-10-26T10:35:23;100531.57958984375;;;23.13;66.14